createdAt,value
2022-12-25T00:08:18.308Z,81.62
2022-12-25T00:13:20.189Z,82.53
2022-12-25T00:18:24.064Z,82.34
2022-12-25T00:23:26.488Z,82.86
2022-12-25T00:28:32.875Z,82.15
2022-12-25T00:33:39.922Z,82.44
2022-12-25T00:56:42.252Z,81.28
2022-12-25T01:01:59.736Z,81.70
2022-12-25T01:07:50.237Z,83.44
2022-12-25T01:18:51.369Z,85.08
2022-12-25T01:23:54.055Z,84.13
2022-12-25T01:28:57.215Z,85.58
2022-12-25T01:33:58.981Z,85.06
2022-12-25T01:39:00.896Z,85.76
2022-12-25T01:44:07.233Z,84.99
2022-12-25T01:49:12.728Z,84.69
2022-12-25T01:54:18.001Z,84.58
2022-12-25T01:59:24.313Z,85.22
2022-12-25T02:04:30.172Z,85.12
2022-12-25T02:09:32.587Z,83.75
2022-12-25T02:14:37.510Z,83.27
2022-12-25T02:20:12.062Z,83.30
2022-12-25T02:25:33.154Z,83.04
2022-12-25T02:31:05.047Z,82.92
2022-12-25T02:36:16.200Z,82.43
2022-12-25T02:41:27.885Z,82.48
2022-12-25T02:46:33.634Z,80.33
2022-12-25T02:51:40.328Z,83.50
2022-12-25T02:56:46.903Z,82.38
2022-12-25T03:01:51.147Z,82.24
2022-12-25T03:07:02.667Z,82.10
2022-12-25T03:12:13.507Z,80.90
2022-12-25T03:17:17.140Z,78.41
2022-12-25T03:22:24.952Z,78.26
2022-12-25T03:27:29.741Z,80.82
2022-12-25T03:32:40.223Z,82.06
2022-12-25T03:37:50.679Z,81.26
2022-12-25T03:42:58.950Z,81.16
2022-12-25T03:48:05.308Z,80.86
2022-12-25T03:53:12.711Z,81.29
2022-12-25T03:58:19.219Z,82.14
2022-12-25T04:03:22.593Z,83.04
2022-12-25T04:08:24.464Z,82.67
2022-12-25T04:13:26.317Z,82.52
2022-12-25T04:18:29.585Z,80.80
2022-12-25T04:28:51.321Z,79.72
2022-12-25T04:33:58.829Z,79.82
2022-12-25T04:39:00.498Z,79.31
2022-12-25T04:44:02.375Z,80.22
2022-12-25T04:49:05.785Z,81.76
2022-12-25T04:54:07.493Z,83.75
2022-12-25T04:59:09.330Z,82.37
2022-12-25T05:04:12.737Z,82.49
2022-12-25T05:09:14.388Z,81.21
2022-12-25T05:14:16.234Z,81.48
2022-12-25T05:19:19.532Z,79.01
2022-12-25T05:24:26.017Z,78.97
2022-12-25T05:29:27.981Z,79.35
2022-12-25T05:34:31.410Z,78.58
2022-12-25T05:45:57.184Z,76.92
2022-12-25T05:51:34.547Z,74.68
2022-12-25T05:56:55.213Z,76.74
2022-12-25T06:02:29.563Z,77.54
2022-12-25T06:07:55.793Z,76.33
2022-12-25T06:13:28.656Z,75.73
2022-12-25T06:24:21.495Z,76.44
2022-12-25T07:04:37.942Z,77.12
2022-12-25T07:10:23.739Z,75.65
2022-12-25T07:22:09.137Z,73.57
2022-12-25T07:45:17.569Z,73.87
2022-12-25T07:50:44.695Z,76.79
2022-12-25T07:55:47.776Z,77.17
2022-12-25T08:00:49.449Z,79.21
2022-12-25T08:05:51.075Z,78.29
2022-12-25T08:10:54.361Z,79.76
2022-12-25T08:15:57.226Z,78.79
2022-12-25T08:21:03.712Z,77.54
2022-12-25T08:26:08.520Z,76.69
2022-12-25T08:31:14.272Z,80.80
2022-12-25T08:36:17.180Z,81.91
2022-12-25T08:41:23.170Z,79.85
2022-12-25T08:46:25.469Z,79.03
2022-12-25T08:51:27.304Z,78.36
2022-12-25T08:56:30.778Z,76.88
2022-12-25T09:01:32.408Z,73.64
2022-12-25T09:06:34.261Z,76.47
2022-12-25T09:11:37.315Z,78.23
2022-12-25T09:16:39.074Z,81.36
2022-12-25T09:21:41.080Z,80.89
2022-12-25T09:26:44.692Z,82.29
2022-12-25T09:31:46.509Z,80.36
2022-12-25T09:36:48.480Z,80.76
2022-12-25T09:41:56.277Z,82.25
2022-12-25T09:47:01.461Z,79.19
2022-12-25T09:52:08.767Z,75.96
2022-12-25T09:57:14.913Z,78.99
2022-12-25T10:02:52.605Z,81.11
2022-12-25T10:08:02.464Z,79.46
2022-12-25T10:13:16.681Z,76.93
2022-12-25T10:18:47.266Z,79.93
2022-12-25T10:23:55.519Z,78.42
2022-12-25T10:29:04.341Z,85.47
2022-12-25T10:34:07.095Z,82.59
2022-12-25T10:39:12.547Z,82.15
2022-12-25T10:44:17.783Z,82.00
2022-12-25T10:49:22.152Z,82.38
2022-12-25T10:54:26.366Z,82.08
2022-12-25T10:59:34.436Z,83.90
2022-12-25T11:04:36.534Z,82.97
2022-12-25T11:09:38.194Z,80.54
2022-12-25T11:14:53.586Z,77.50
2022-12-25T11:19:57.221Z,79.38
2022-12-25T11:25:11.866Z,78.88
2022-12-25T11:30:19.380Z,78.94
2022-12-25T11:35:24.269Z,81.46
2022-12-25T11:40:28.934Z,79.64
2022-12-25T11:45:37.211Z,80.23
2022-12-25T11:50:43.466Z,80.48
2022-12-25T11:55:49.356Z,78.83
2022-12-25T12:00:55.187Z,79.95
2022-12-25T12:05:59.805Z,76.08
2022-12-25T12:11:12.639Z,76.37
2022-12-25T12:16:15.865Z,78.49
2022-12-25T12:21:22.425Z,76.73
2022-12-25T12:26:27.536Z,77.05
2022-12-25T12:31:39.271Z,76.11
2022-12-25T12:36:41.252Z,75.93
2022-12-25T12:41:48.445Z,76.82
2022-12-25T12:46:53.537Z,79.84
2022-12-25T12:52:06.990Z,80.45
2022-12-25T12:57:23.177Z,77.74
2022-12-25T13:02:58.241Z,79.39
2022-12-25T13:08:07.877Z,78.72
2022-12-25T13:13:16.962Z,78.73
2022-12-25T13:18:20.938Z,79.91
2022-12-25T13:23:25.709Z,81.12
2022-12-25T13:28:28.652Z,79.42
2022-12-25T13:33:32.099Z,78.58
2022-12-25T13:38:34.453Z,80.30
2022-12-25T13:43:36.517Z,79.04
2022-12-25T13:48:39.852Z,80.21
2022-12-25T13:53:42.013Z,80.35
2022-12-25T13:58:47.499Z,79.54
2022-12-25T14:03:50.739Z,78.91
2022-12-25T14:08:54.603Z,79.89
2022-12-25T14:14:00.117Z,81.26
2022-12-25T14:19:03.547Z,80.80
2022-12-25T14:24:13.564Z,82.02
2022-12-25T14:29:19.140Z,81.67
2022-12-25T14:34:27.918Z,82.13
2022-12-25T14:39:35.462Z,82.37
2022-12-25T14:44:38.935Z,82.81
2022-12-25T14:49:42.991Z,82.29
2022-12-25T14:54:47.245Z,83.60
2022-12-25T14:59:56.573Z,84.56
2022-12-25T15:04:59.685Z,83.69
2022-12-25T15:15:23.590Z,82.96
2022-12-25T15:20:30.831Z,82.30
2022-12-25T15:25:32.482Z,82.83
2022-12-25T15:30:36.525Z,84.32
2022-12-25T15:35:39.511Z,85.17
2022-12-25T15:40:42.491Z,85.71
2022-12-25T15:45:44.304Z,86.20
2022-12-25T15:50:47.492Z,83.76
2022-12-25T15:55:49.495Z,83.38
2022-12-25T16:00:51.186Z,84.68
2022-12-25T16:05:54.427Z,81.71
2022-12-25T16:10:56.274Z,81.05
2022-12-25T16:15:57.954Z,81.63
2022-12-25T16:21:01.329Z,80.65
2022-12-25T16:26:02.983Z,80.59
2022-12-25T16:31:04.887Z,79.59
2022-12-25T16:36:08.852Z,78.36
2022-12-25T16:41:10.488Z,79.26
2022-12-25T16:46:13.905Z,81.03
2022-12-25T16:51:19.178Z,80.18
2022-12-25T16:56:21.227Z,78.62
2022-12-25T17:01:24.277Z,79.86
2022-12-25T17:06:28.278Z,79.89
2022-12-25T17:11:30.465Z,80.40
2022-12-25T17:16:34.267Z,80.31
2022-12-25T17:21:37.571Z,79.88
2022-12-25T17:26:39.651Z,79.75
2022-12-25T17:31:41.492Z,79.76
2022-12-25T17:36:44.588Z,80.08
2022-12-25T17:41:46.300Z,79.57
2022-12-25T17:46:48.820Z,78.46
2022-12-25T17:51:53.956Z,79.61
2022-12-25T17:56:55.684Z,80.77
2022-12-25T18:01:57.627Z,79.02
2022-12-25T18:07:00.939Z,78.34
2022-12-25T18:12:02.563Z,77.19
2022-12-25T18:17:04.172Z,78.46
2022-12-25T18:22:08.733Z,80.39
2022-12-25T18:27:19.274Z,79.99
2022-12-25T18:32:27.763Z,79.00
2022-12-25T18:37:39.423Z,77.82
2022-12-25T18:42:42.021Z,77.61
2022-12-25T18:47:43.815Z,78.60
2022-12-25T18:52:51.663Z,78.46
2022-12-25T18:57:54.097Z,78.70
2022-12-25T19:02:56.648Z,78.24
2022-12-25T19:08:00.391Z,78.96
2022-12-25T19:13:02.439Z,78.61
2022-12-25T19:18:04.281Z,78.22
2022-12-25T19:23:07.826Z,78.12
2022-12-25T19:28:09.694Z,75.87
2022-12-25T19:33:17.472Z,76.64
2022-12-25T19:38:21.194Z,77.76
2022-12-25T19:43:23.004Z,78.68
2022-12-25T19:48:25.173Z,77.85
2022-12-25T19:53:29.809Z,77.11
2022-12-25T19:58:31.494Z,79.58
2022-12-25T20:03:33.612Z,78.44
2022-12-25T20:08:36.900Z,79.59
2022-12-25T20:13:38.521Z,80.01
2022-12-25T20:18:40.447Z,79.97
2022-12-25T20:23:44.786Z,80.28
2022-12-25T20:28:46.515Z,80.42
2022-12-25T20:33:48.313Z,81.75
2022-12-25T20:38:51.421Z,82.15
2022-12-25T20:43:53.271Z,82.14
2022-12-25T20:48:55.340Z,81.43
2022-12-25T20:53:58.436Z,80.37
2022-12-25T20:59:01.005Z,79.85
2022-12-25T21:04:02.835Z,80.54
2022-12-25T21:09:06.309Z,80.90
2022-12-25T21:14:08.229Z,80.43
2022-12-25T21:19:09.979Z,80.03
2022-12-25T21:24:13.052Z,80.08
2022-12-25T21:29:14.884Z,80.38
2022-12-25T21:34:16.607Z,78.84
2022-12-25T21:39:19.635Z,77.23
2022-12-25T21:44:21.254Z,77.70
2022-12-25T21:49:23.117Z,77.58
2022-12-25T21:54:26.549Z,76.95
2022-12-25T21:59:28.311Z,78.01
2022-12-25T22:04:29.929Z,78.70
2022-12-25T22:09:33.230Z,78.87
2022-12-25T22:14:52.804Z,79.06
2022-12-25T22:19:55.615Z,79.96
2022-12-25T22:25:00.582Z,79.48
2022-12-25T22:30:02.645Z,78.00
2022-12-25T22:35:05.046Z,76.12
2022-12-25T22:40:10.990Z,76.78
2022-12-25T22:45:13.002Z,77.47
2022-12-25T22:50:16.284Z,78.45
2022-12-25T22:55:19.490Z,78.65
2022-12-25T23:00:21.530Z,78.50
2022-12-25T23:05:23.142Z,79.11
2022-12-25T23:10:28.249Z,78.81
2022-12-25T23:15:29.879Z,79.04
2022-12-25T23:20:32.681Z,79.80
2022-12-25T23:25:35.766Z,79.01
2022-12-25T23:30:37.681Z,79.97
2022-12-25T23:35:39.623Z,79.37
2022-12-25T23:40:42.765Z,79.68
2022-12-25T23:45:44.570Z,79.27
2022-12-25T23:50:46.429Z,80.41
2022-12-25T23:55:55.397Z,79.99
